createdAt,value
2022-12-19T00:33:59.188Z,0.00
2022-12-19T00:38:58.224Z,0.00
2022-12-19T00:43:58.203Z,0.00
2022-12-19T01:37:35.424Z,0.00
2022-12-19T01:42:34.751Z,0.00
2022-12-19T01:47:33.931Z,0.00
2022-12-19T01:52:33.729Z,0.00
2022-12-19T01:57:33.631Z,0.00
2022-12-19T02:02:34.287Z,0.00
2022-12-19T02:10:46.022Z,0.00
2022-12-19T02:28:52.228Z,0.00
2022-12-19T03:34:26.448Z,0.00
2022-12-19T03:47:42.267Z,0.00
2022-12-19T04:14:15.467Z,0.00
2022-12-19T04:23:04.415Z,0.00
2022-12-19T04:59:21.061Z,0.00
2022-12-19T05:04:20.271Z,0.00
2022-12-19T05:09:20.103Z,0.00
2022-12-19T05:14:19.841Z,0.00
2022-12-19T05:21:43.118Z,0.00
2022-12-19T05:33:11.999Z,0.00
2022-12-19T05:38:11.755Z,0.00
2022-12-19T05:43:11.734Z,0.00
2022-12-19T05:55:46.645Z,0.00
2022-12-19T06:00:46.443Z,0.00
2022-12-19T06:05:46.421Z,0.00
2022-12-19T06:10:46.150Z,0.00
2022-12-19T06:15:46.074Z,0.00
2022-12-19T06:20:46.025Z,0.00
2022-12-19T06:25:46.136Z,0.00
2022-12-19T06:30:45.955Z,0.00
2022-12-19T06:35:46.060Z,0.00
2022-12-19T06:40:45.931Z,4.00
2022-12-19T06:45:48.981Z,4.00
2022-12-19T06:52:36.553Z,12.00
2022-12-19T06:57:36.468Z,28.00
2022-12-19T07:02:36.426Z,48.00
2022-12-19T07:07:36.146Z,80.00
2022-12-19T07:12:36.966Z,124.00
2022-12-19T07:17:36.174Z,176.00
2022-12-19T07:22:36.171Z,264.00
2022-12-19T07:27:36.426Z,360.00
2022-12-19T07:32:37.167Z,480.00
2022-12-19T07:37:35.734Z,628.00
2022-12-19T07:42:38.684Z,784.00
2022-12-19T07:47:35.757Z,980.00
2022-12-19T07:53:52.803Z,1196.00
2022-12-19T07:58:52.655Z,1368.00
2022-12-19T08:03:52.575Z,1488.00
2022-12-19T08:08:52.514Z,1464.00
2022-12-19T08:14:01.394Z,1496.00
2022-12-19T08:18:52.322Z,1500.00
2022-12-19T08:23:52.270Z,1500.00
2022-12-19T08:28:59.897Z,1616.00
2022-12-19T08:33:52.116Z,1760.00
2022-12-19T08:38:52.086Z,1864.00
2022-12-19T08:43:55.354Z,2040.00
2022-12-19T08:48:52.346Z,2160.00
2022-12-19T08:53:51.916Z,1936.00
2022-12-19T08:58:51.797Z,1748.00
2022-12-19T09:05:30.892Z,2068.00
2022-12-19T09:10:32.229Z,2640.00
2022-12-19T09:17:13.310Z,2876.00
2022-12-19T09:22:12.410Z,2488.00
2022-12-19T09:27:12.227Z,2380.00
2022-12-19T09:32:12.115Z,2524.00
2022-12-19T09:47:48.569Z,2384.00
2022-12-19T10:21:36.958Z,2864.00
2022-12-19T10:37:56.693Z,3668.00
2022-12-19T11:19:30.259Z,3956.00
2022-12-19T11:29:16.309Z,3760.00
2022-12-19T11:30:45.890Z,3452.00
2022-12-19T11:35:04.725Z,3228.00
2022-12-19T11:40:03.743Z,3224.00
2022-12-19T11:45:03.570Z,2808.00
2022-12-19T11:50:03.580Z,2592.00
2022-12-19T11:55:03.382Z,2620.00
2022-12-19T12:00:05.680Z,2824.00
2022-12-19T12:05:03.386Z,3180.00
2022-12-19T12:13:31.773Z,3380.00
2022-12-19T12:27:07.129Z,3288.00
2022-12-19T12:31:14.254Z,3516.00
2022-12-19T12:31:27.852Z,3280.00
2022-12-19T12:31:41.881Z,3960.00
2022-12-19T12:37:51.038Z,4132.00
2022-12-19T12:40:03.710Z,4172.00
2022-12-19T12:45:02.607Z,3920.00
2022-12-19T12:50:02.609Z,3772.00
2022-12-19T12:55:02.592Z,3688.00
2022-12-19T13:00:02.493Z,3160.00
2022-12-19T13:05:02.367Z,3252.00
2022-12-19T13:10:05.354Z,3036.00
2022-12-19T13:15:09.953Z,2860.00
2022-12-19T13:20:02.207Z,2756.00
2022-12-19T13:25:02.235Z,2440.00
2022-12-19T13:30:02.127Z,2160.00
2022-12-19T13:35:47.586Z,1968.00
2022-12-19T13:40:18.504Z,1848.00
2022-12-19T13:45:02.871Z,1456.00
2022-12-19T13:50:09.631Z,1272.00
2022-12-19T13:55:01.835Z,1252.00
2022-12-19T14:00:01.915Z,1272.00
2022-12-19T14:05:01.636Z,1132.00
2022-12-19T14:11:28.982Z,960.00
2022-12-19T14:15:12.909Z,920.00
2022-12-19T14:20:15.504Z,672.00
2022-12-19T14:25:32.107Z,544.00
2022-12-19T14:30:31.065Z,432.00
2022-12-19T14:36:08.880Z,348.00
2022-12-19T14:40:03.122Z,316.00
2022-12-19T14:52:51.968Z,264.00
2022-12-19T14:54:24.479Z,224.00
2022-12-19T14:56:11.540Z,176.00
2022-12-19T15:00:02.101Z,120.00
2022-12-19T15:05:01.232Z,68.00
2022-12-19T15:11:07.921Z,52.00
2022-12-19T15:15:01.964Z,32.00
2022-12-19T15:20:00.868Z,16.00
2022-12-19T15:25:00.608Z,8.00
2022-12-19T15:30:00.544Z,4.00
2022-12-19T15:35:00.731Z,0.00
2022-12-19T15:40:00.472Z,0.00
2022-12-19T15:48:36.078Z,0.00
2022-12-19T15:53:40.830Z,0.00
2022-12-19T15:59:46.493Z,0.00
2022-12-19T16:06:03.461Z,0.00
2022-12-19T16:11:03.242Z,0.00
2022-12-19T16:16:06.365Z,0.00
2022-12-19T16:21:04.111Z,0.00
2022-12-19T16:28:44.087Z,0.00
2022-12-19T16:33:51.343Z,0.00
2022-12-19T16:38:43.752Z,0.00
2022-12-19T16:43:43.747Z,0.00
2022-12-19T16:48:43.599Z,0.00
2022-12-19T16:53:43.628Z,0.00
2022-12-19T16:58:43.654Z,0.00
2022-12-19T17:03:43.540Z,0.00
2022-12-19T17:08:43.337Z,0.00
2022-12-19T17:13:43.332Z,0.00
2022-12-19T17:18:46.417Z,0.00
2022-12-19T17:23:43.202Z,0.00
2022-12-19T17:28:43.222Z,0.00
2022-12-19T17:33:43.185Z,0.00
2022-12-19T17:38:42.982Z,0.00
2022-12-19T17:43:42.891Z,0.00
2022-12-19T17:48:42.996Z,0.00
2022-12-19T17:53:42.761Z,0.00
2022-12-19T17:58:43.076Z,0.00
2022-12-19T18:03:42.658Z,0.00
2022-12-19T18:08:42.620Z,0.00
2022-12-19T18:13:42.618Z,0.00
2022-12-19T18:18:45.616Z,0.00
2022-12-19T18:23:42.526Z,0.00
2022-12-19T18:28:42.393Z,0.00
2022-12-19T18:33:42.239Z,0.00
2022-12-19T18:38:42.292Z,0.00
2022-12-19T18:43:42.095Z,0.00
2022-12-19T18:48:42.121Z,0.00
2022-12-19T18:53:50.450Z,0.00
2022-12-19T18:58:41.968Z,0.00
2022-12-19T19:03:42.347Z,0.00
2022-12-19T19:08:42.011Z,0.00
2022-12-19T19:13:49.802Z,0.00
2022-12-19T19:18:52.669Z,0.00
2022-12-19T19:24:59.731Z,0.00
2022-12-19T19:29:59.462Z,0.00
2022-12-19T19:34:59.422Z,0.00
2022-12-19T19:40:00.184Z,0.00
2022-12-19T19:44:59.405Z,0.00
2022-12-19T19:51:17.439Z,0.00
2022-12-19T19:56:24.149Z,0.00
2022-12-19T20:01:25.079Z,0.00
2022-12-19T20:06:16.964Z,0.00
2022-12-19T20:11:17.016Z,0.00
2022-12-19T20:16:17.106Z,0.00
2022-12-19T20:21:16.726Z,0.00
2022-12-19T20:26:16.811Z,0.00
2022-12-19T20:31:16.849Z,0.00
2022-12-19T20:36:16.567Z,0.00
2022-12-19T20:41:19.553Z,0.00
2022-12-19T20:46:16.508Z,0.00
2022-12-19T20:51:16.369Z,0.00
2022-12-19T20:56:16.666Z,0.00
2022-12-19T21:01:16.309Z,0.00
2022-12-19T21:06:16.159Z,0.00
2022-12-19T21:11:16.411Z,0.00
2022-12-19T21:16:16.187Z,0.00
2022-12-19T21:21:16.214Z,0.00
2022-12-19T21:26:16.105Z,0.00
2022-12-19T21:31:16.100Z,0.00
2022-12-19T21:36:15.969Z,0.00
2022-12-19T21:41:18.811Z,0.00
2022-12-19T21:46:15.819Z,0.00
2022-12-19T21:51:15.615Z,0.00
2022-12-19T21:59:06.628Z,0.00
2022-12-19T22:04:06.693Z,0.00
2022-12-19T22:09:06.314Z,0.00
2022-12-19T22:14:06.324Z,0.00
2022-12-19T22:19:14.298Z,0.00
2022-12-19T22:24:13.128Z,0.00
2022-12-19T22:29:06.241Z,0.00
2022-12-19T22:34:05.987Z,0.00
2022-12-19T22:39:06.218Z,0.00
2022-12-19T22:44:05.776Z,0.00
2022-12-19T22:49:08.909Z,0.00
2022-12-19T22:54:06.188Z,0.00
2022-12-19T22:59:06.426Z,0.00
2022-12-19T23:04:05.681Z,0.00
2022-12-19T23:09:05.649Z,0.00
2022-12-19T23:14:05.393Z,0.00
2022-12-19T23:19:05.368Z,0.00
2022-12-19T23:24:05.282Z,0.00
2022-12-19T23:29:05.249Z,0.00
2022-12-19T23:34:05.207Z,0.00
2022-12-19T23:39:05.190Z,0.00
2022-12-19T23:44:05.132Z,0.00
2022-12-19T23:49:08.009Z,0.00
2022-12-19T23:54:04.926Z,0.00
2022-12-19T23:59:04.882Z,0.00
